createdAt,value
2018-10-01T00:00:47.552Z,100.00
2018-10-01T00:03:15.834Z,100.00
2018-10-01T00:05:44.224Z,100.00
2018-10-01T00:08:12.745Z,100.00
2018-10-01T00:10:41.195Z,99.97
2018-10-01T00:13:09.633Z,98.60
2018-10-01T00:15:38.154Z,98.91
2018-10-01T00:18:06.473Z,100.00
2018-10-01T00:20:40.108Z,99.49
2018-10-01T00:23:08.414Z,99.24
2018-10-01T00:25:36.866Z,98.57
2018-10-01T00:28:05.328Z,98.75
2018-10-01T00:30:33.720Z,98.21
2018-10-01T00:33:02.383Z,97.16
2018-10-01T00:35:30.797Z,97.16
2018-10-01T00:37:59.192Z,97.07
2018-10-01T00:40:27.479Z,96.22
2018-10-01T00:42:55.983Z,95.12
2018-10-01T00:45:24.290Z,93.08
2018-10-01T00:47:52.737Z,91.70
2018-10-01T00:50:21.121Z,90.37
2018-10-01T00:52:49.428Z,88.47
2018-10-01T00:55:17.764Z,85.46
2018-10-01T00:57:46.182Z,83.78
2018-10-01T01:00:14.506Z,82.64
2018-10-01T01:02:42.882Z,80.44
2018-10-01T01:05:11.186Z,79.38
2018-10-01T01:07:39.596Z,80.35
2018-10-01T01:10:07.893Z,80.18
2018-10-01T01:12:36.436Z,82.27
2018-10-01T01:15:04.862Z,83.29
2018-10-01T01:17:33.252Z,83.11
2018-10-01T01:20:01.710Z,84.34
2018-10-01T01:22:30.178Z,83.87
2018-10-01T01:24:58.516Z,84.30
2018-10-01T01:27:27.152Z,85.37
2018-10-01T01:29:55.520Z,86.05
2018-10-01T01:32:24.338Z,86.78
2018-10-01T01:34:52.672Z,87.12
2018-10-01T01:37:21.373Z,87.71
2018-10-01T01:39:49.831Z,87.60
2018-10-01T01:42:18.238Z,87.91
2018-10-01T01:44:46.585Z,87.13
2018-10-01T01:47:15.098Z,86.91
2018-10-01T01:49:43.471Z,87.17
2018-10-01T01:52:11.880Z,86.35
2018-10-01T01:54:40.207Z,87.32
2018-10-01T01:57:08.595Z,87.64
2018-10-01T01:59:36.930Z,87.18
2018-10-01T02:02:05.327Z,87.22
2018-10-01T02:04:33.610Z,86.64
2018-10-01T02:07:01.974Z,86.60
2018-10-01T02:09:30.305Z,86.17
2018-10-01T02:12:05.359Z,86.43
2018-10-01T02:14:33.776Z,86.05
2018-10-01T02:17:02.430Z,86.82
2018-10-01T02:19:35.411Z,86.98
2018-10-01T02:22:04.250Z,87.71
2018-10-01T02:24:34.532Z,88.47
2018-10-01T02:27:03.035Z,88.79
2018-10-01T02:29:31.623Z,87.98
2018-10-01T02:32:00.144Z,86.11
2018-10-01T02:34:28.714Z,85.25
2018-10-01T02:36:57.287Z,83.93
2018-10-01T02:39:25.911Z,84.77
2018-10-01T02:41:56.742Z,83.17
2018-10-01T02:44:25.393Z,82.00
2018-10-01T02:46:53.961Z,80.27
2018-10-01T02:49:22.439Z,78.40
2018-10-01T02:51:58.268Z,77.34
2018-10-01T02:54:53.685Z,76.38
2018-10-01T02:57:36.779Z,76.14
2018-10-01T03:03:24.199Z,76.54
2018-10-01T03:05:52.910Z,75.94
2018-10-01T03:08:22.000Z,75.10
2018-10-01T03:10:50.683Z,73.59
2018-10-01T03:13:19.364Z,72.41
2018-10-01T03:15:48.075Z,72.84
2018-10-01T03:18:17.827Z,71.53
2018-10-01T03:20:46.654Z,70.64
2018-10-01T03:23:15.332Z,70.14
2018-10-01T03:25:44.098Z,68.67
2018-10-01T03:28:14.005Z,67.92
2018-10-01T03:30:43.084Z,66.94
2018-10-01T03:33:11.935Z,66.97
2018-10-01T03:35:40.630Z,66.17
2018-10-01T03:38:09.075Z,66.33
2018-10-01T03:40:37.549Z,65.62
2018-10-01T03:43:06.071Z,66.23
2018-10-01T03:45:34.802Z,66.51
2018-10-01T03:48:03.430Z,65.21
2018-10-01T03:50:31.927Z,65.17
2018-10-01T03:53:12.345Z,65.26
2018-10-01T03:55:41.061Z,64.23
2018-10-01T03:58:09.603Z,64.36
2018-10-01T04:00:58.080Z,64.16
2018-10-01T04:03:26.471Z,64.56
2018-10-01T04:05:59.433Z,64.56
2018-10-01T04:08:27.826Z,64.12
2018-10-01T04:10:56.363Z,64.74
2018-10-01T04:13:25.328Z,63.75
2018-10-01T04:15:53.777Z,63.48
2018-10-01T04:18:22.294Z,63.86
2018-10-01T04:20:50.749Z,64.24
2018-10-01T04:23:19.179Z,65.02
2018-10-01T04:25:50.995Z,63.07
2018-10-01T04:28:19.484Z,65.26
2018-10-01T04:30:47.942Z,64.70
2018-10-01T04:39:03.100Z,63.42
2018-10-01T04:41:31.553Z,63.88
2018-10-01T04:44:00.198Z,63.22
2018-10-01T04:46:28.621Z,65.04
2018-10-01T04:48:57.090Z,63.25
2018-10-01T04:51:25.522Z,63.51
2018-10-01T04:53:54.123Z,63.73
2018-10-01T04:56:22.657Z,62.56
2018-10-01T05:01:55.731Z,63.39
2018-10-01T05:04:24.056Z,62.33
2018-10-01T05:06:52.616Z,63.31
2018-10-01T05:09:21.248Z,64.21
2018-10-01T05:11:49.888Z,64.14
2018-10-01T05:14:20.731Z,65.45
2018-10-01T05:16:49.231Z,64.90
2018-10-01T05:19:17.734Z,64.21
2018-10-01T05:21:46.305Z,63.71
2018-10-01T05:24:14.825Z,63.14
2018-10-01T05:26:43.511Z,64.44
2018-10-01T05:29:12.041Z,61.35
2018-10-01T05:31:40.754Z,62.63
2018-10-01T05:34:09.677Z,63.43
2018-10-01T05:36:38.472Z,96.94
2018-10-01T05:39:10.128Z,59.56
2018-10-01T05:41:39.053Z,59.41
2018-10-01T05:44:07.769Z,60.07
2018-10-01T05:46:36.495Z,61.49
2018-10-01T05:49:05.216Z,62.33
2018-10-01T05:51:33.964Z,64.04
2018-10-01T05:54:02.583Z,62.59
2018-10-01T05:56:31.194Z,63.25
2018-10-01T05:58:59.869Z,63.10
2018-10-01T06:01:33.396Z,61.45
2018-10-01T06:04:02.289Z,63.79
2018-10-01T06:06:30.843Z,62.92
2018-10-01T06:08:59.497Z,62.46
2018-10-01T06:11:28.505Z,63.38
2018-10-01T06:13:57.127Z,63.12
2018-10-01T06:16:26.891Z,64.10
2018-10-01T06:18:55.820Z,63.72
2018-10-01T06:21:24.556Z,63.83
2018-10-01T06:23:53.981Z,64.26
2018-10-01T06:26:22.705Z,64.23
2018-10-01T06:28:53.330Z,66.18
2018-10-01T06:31:22.822Z,66.58
2018-10-01T06:33:51.715Z,65.50
2018-10-01T06:36:22.575Z,64.58
2018-10-01T06:38:53.018Z,63.46
2018-10-01T06:41:27.647Z,62.89
2018-10-01T06:43:56.576Z,62.85
2018-10-01T06:46:25.150Z,63.38
2018-10-01T06:48:53.660Z,63.30
2018-10-01T06:51:22.261Z,62.97
2018-10-01T06:56:44.534Z,63.46
2018-10-01T06:59:13.106Z,63.15
2018-10-01T07:01:41.751Z,63.91
2018-10-01T07:04:10.392Z,63.90
2018-10-01T07:06:40.413Z,64.33
2018-10-01T07:09:10.809Z,65.18
2018-10-01T07:11:40.364Z,64.80
2018-10-01T07:14:08.936Z,65.90
2018-10-01T07:16:43.283Z,65.30
2018-10-01T07:19:11.775Z,64.61
2018-10-01T07:21:40.234Z,64.89
2018-10-01T07:24:08.702Z,65.88
2018-10-01T07:26:37.388Z,64.49
2018-10-01T07:29:06.053Z,64.58
2018-10-01T07:31:34.639Z,65.10
2018-10-01T07:34:03.116Z,66.13
2018-10-01T07:36:32.720Z,64.60
2018-10-01T07:39:01.354Z,64.43
2018-10-01T07:41:29.827Z,64.41
2018-10-01T07:44:15.195Z,64.30
2018-10-01T07:46:43.846Z,64.62
2018-10-01T07:49:12.655Z,64.21
2018-10-01T07:51:41.340Z,64.38
2018-10-01T07:54:10.278Z,63.85
2018-10-01T07:56:38.793Z,62.91
2018-10-01T07:59:28.768Z,62.45
2018-10-01T08:01:57.439Z,63.29
2018-10-01T08:04:25.978Z,62.64
2018-10-01T08:06:54.739Z,62.55
2018-10-01T08:09:23.354Z,63.22
2018-10-01T08:11:52.126Z,63.79
2018-10-01T08:14:20.743Z,63.18
2018-10-01T08:16:49.302Z,62.21
2018-10-01T08:19:17.837Z,62.47
2018-10-01T08:21:46.317Z,61.43
2018-10-01T08:30:00.548Z,61.60
2018-10-01T08:32:50.570Z,70.83
2018-10-01T08:35:19.180Z,67.79
2018-10-01T08:37:47.683Z,62.89
2018-10-01T08:40:16.130Z,61.90
2018-10-01T08:42:44.855Z,60.72
2018-10-01T08:45:25.764Z,59.75
2018-10-01T08:47:55.329Z,60.75
2018-10-01T08:51:27.907Z,60.18
2018-10-01T08:54:08.217Z,67.35
2018-10-01T08:56:36.653Z,62.39
2018-10-01T08:59:11.452Z,61.07
2018-10-01T09:01:46.723Z,65.93
2018-10-01T09:04:15.285Z,62.40
2018-10-01T09:06:51.137Z,63.80
2018-10-01T09:09:19.855Z,62.24
2018-10-01T09:11:58.325Z,62.56
2018-10-01T09:14:26.926Z,64.24
2018-10-01T09:16:55.603Z,64.36
2018-10-01T09:19:24.205Z,62.68
2018-10-01T09:21:52.660Z,65.69
2018-10-01T09:24:21.225Z,66.96
2018-10-01T09:26:49.861Z,65.94
2018-10-01T09:29:18.486Z,63.88
2018-10-01T09:31:47.185Z,63.52
2018-10-01T09:34:15.750Z,64.51
2018-10-01T09:36:44.273Z,65.47
2018-10-01T09:39:12.817Z,65.74
2018-10-01T09:41:41.410Z,65.17
2018-10-01T09:44:10.107Z,64.34
2018-10-01T09:46:38.997Z,65.99
2018-10-01T09:49:07.579Z,65.87
2018-10-01T09:51:36.147Z,65.85
2018-10-01T09:54:04.604Z,66.08
2018-10-01T09:56:33.928Z,66.11
2018-10-01T09:59:02.326Z,66.41
2018-10-01T10:01:30.781Z,66.33
2018-10-01T10:03:59.259Z,65.48
2018-10-01T10:06:27.747Z,66.76
2018-10-01T10:08:56.186Z,65.20
2018-10-01T10:11:26.155Z,64.24
2018-10-01T10:13:55.345Z,64.25
2018-10-01T10:16:25.751Z,63.99
2018-10-01T10:18:54.271Z,63.07
2018-10-01T10:21:22.823Z,63.31
2018-10-01T10:23:51.250Z,62.68
2018-10-01T10:29:12.770Z,61.73
2018-10-01T10:31:41.193Z,60.79
2018-10-01T10:34:09.726Z,60.73
2018-10-01T10:36:38.035Z,61.23
2018-10-01T10:39:11.219Z,61.22
2018-10-01T10:41:39.800Z,60.73
2018-10-01T10:44:08.205Z,59.95
2018-10-01T10:46:36.580Z,58.98
2018-10-01T10:49:06.090Z,58.45
2018-10-01T10:51:34.701Z,59.40
2018-10-01T10:54:03.275Z,58.83
2018-10-01T10:56:31.757Z,61.13
2018-10-01T10:59:00.234Z,56.94
2018-10-01T11:01:28.699Z,56.74
2018-10-01T11:03:59.260Z,57.21
2018-10-01T11:06:27.703Z,56.51
2018-10-01T11:08:56.263Z,55.47
2018-10-01T11:11:25.095Z,55.21
2018-10-01T11:14:03.370Z,55.98
2018-10-01T11:16:31.961Z,55.15
2018-10-01T11:19:00.968Z,54.74
2018-10-01T11:21:29.490Z,54.83
2018-10-01T11:23:58.013Z,53.90
2018-10-01T11:26:26.546Z,55.22
2018-10-01T11:28:55.170Z,56.27
2018-10-01T11:31:23.699Z,55.04
2018-10-01T11:33:52.270Z,54.91
2018-10-01T11:36:21.414Z,61.97
2018-10-01T11:38:50.315Z,53.96
2018-10-01T11:41:18.795Z,61.02
2018-10-01T11:43:47.181Z,56.30
2018-10-01T11:46:15.884Z,58.05
2018-10-01T11:48:44.399Z,51.71
2018-10-01T11:51:13.041Z,56.10
2018-10-01T11:53:41.465Z,47.08
2018-10-01T11:56:09.875Z,48.08
2018-10-01T11:58:38.386Z,48.55
2018-10-01T12:01:06.777Z,49.99
2018-10-01T12:03:36.329Z,50.33
2018-10-01T12:06:04.678Z,50.05
2018-10-01T12:08:33.158Z,50.97
2018-10-01T12:13:58.132Z,53.28
2018-10-01T12:16:26.851Z,53.94
2018-10-01T12:19:10.067Z,54.39
2018-10-01T12:21:38.505Z,55.70
2018-10-01T12:24:06.981Z,55.08
2018-10-01T12:26:35.332Z,54.93
2018-10-01T12:29:03.799Z,53.98
2018-10-01T12:31:32.288Z,54.24
2018-10-01T12:34:00.816Z,53.72
2018-10-01T12:36:29.146Z,53.09
2018-10-01T12:38:57.616Z,51.71
2018-10-01T12:41:26.188Z,50.50
2018-10-01T12:43:54.506Z,50.13
2018-10-01T12:46:23.126Z,51.22
2018-10-01T12:48:51.557Z,50.16
2018-10-01T12:51:20.160Z,49.66
2018-10-01T12:53:49.794Z,49.44
2018-10-01T12:56:18.348Z,48.20
2018-10-01T12:58:47.491Z,47.78
2018-10-01T13:01:15.915Z,46.59
2018-10-01T13:03:44.626Z,46.80
2018-10-01T13:06:13.091Z,45.40
2018-10-01T13:08:41.885Z,43.92
2018-10-01T13:11:11.052Z,41.42
2018-10-01T13:13:41.272Z,43.38
2018-10-01T13:16:15.181Z,44.32
2018-10-01T13:18:45.332Z,43.32
2018-10-01T13:21:16.350Z,43.42
2018-10-01T13:23:46.265Z,44.42
2018-10-01T13:26:15.041Z,43.71
2018-10-01T13:28:43.590Z,44.39
2018-10-01T13:31:12.098Z,44.07
2018-10-01T13:33:40.638Z,45.33
2018-10-01T13:36:09.205Z,44.15
2018-10-01T13:38:42.296Z,44.78
2018-10-01T13:41:10.723Z,45.54
2018-10-01T13:43:39.545Z,45.48
2018-10-01T13:46:11.588Z,47.79
2018-10-01T13:48:40.226Z,51.00
2018-10-01T13:51:08.759Z,53.95
2018-10-01T13:53:37.456Z,54.01
2018-10-01T13:56:05.863Z,55.86
2018-10-01T13:58:40.071Z,56.53
2018-10-01T14:01:08.693Z,53.98
2018-10-01T14:03:37.211Z,52.78
2018-10-01T14:06:05.842Z,51.09
2018-10-01T14:08:36.969Z,52.29
2018-10-01T14:11:10.846Z,50.85
2018-10-01T14:13:58.467Z,50.29
2018-10-01T14:42:41.049Z,36.02
2018-10-01T14:45:20.796Z,35.14
2018-10-01T14:56:41.062Z,33.99
2018-10-01T14:59:20.176Z,39.61
2018-10-01T15:01:50.768Z,45.30
2018-10-01T15:04:20.275Z,31.90
2018-10-01T15:06:55.520Z,37.15
2018-10-01T15:09:28.733Z,30.92
2018-10-01T15:11:59.894Z,32.28
2018-10-01T15:14:28.360Z,31.76
2018-10-01T15:16:56.936Z,32.63
2018-10-01T15:19:25.592Z,32.84
2018-10-01T15:21:54.048Z,35.40
2018-10-01T15:24:23.581Z,38.34
2018-10-01T15:26:52.024Z,40.82
2018-10-01T15:29:20.768Z,41.45
2018-10-01T15:31:50.600Z,41.79
2018-10-01T15:34:19.253Z,42.30
2018-10-01T15:36:47.745Z,42.51
2018-10-01T15:39:16.986Z,43.74
2018-10-01T15:41:46.437Z,42.69
2018-10-01T15:44:15.098Z,39.17
2018-10-01T15:46:43.471Z,36.55
2018-10-01T15:49:11.805Z,35.45
2018-10-01T15:51:41.050Z,36.11
2018-10-01T15:54:09.606Z,38.53
2018-10-01T15:56:38.052Z,39.92
2018-10-01T15:59:06.623Z,41.45
2018-10-01T16:01:35.176Z,42.09
2018-10-01T16:04:03.727Z,42.88
2018-10-01T16:06:32.109Z,43.08
2018-10-01T16:09:00.629Z,42.60
2018-10-01T16:11:29.136Z,42.02
2018-10-01T16:13:57.780Z,42.67
2018-10-01T16:16:28.602Z,44.03
2018-10-01T16:18:57.437Z,43.72
2018-10-01T16:21:26.523Z,44.21
2018-10-01T16:23:55.166Z,43.94
2018-10-01T16:26:24.334Z,44.42
2018-10-01T16:28:53.393Z,44.54
2018-10-01T16:31:22.499Z,45.37
2018-10-01T16:33:50.904Z,46.83
2018-10-01T16:36:19.702Z,46.52
2018-10-01T16:38:48.332Z,54.06
2018-10-01T16:41:16.751Z,64.23
2018-10-01T16:43:45.377Z,43.00
2018-10-01T16:46:13.821Z,43.11
2018-10-01T16:48:42.238Z,45.30
2018-10-01T16:51:10.717Z,59.46
2018-10-01T16:53:40.031Z,46.40
2018-10-01T16:56:13.721Z,47.88
2018-10-01T16:58:42.142Z,49.34
2018-10-01T17:01:12.808Z,49.17
2018-10-01T17:03:41.313Z,51.00
2018-10-01T17:06:09.846Z,51.24
2018-10-01T17:08:40.396Z,51.67
2018-10-01T17:11:08.878Z,52.12
2018-10-01T17:13:37.303Z,52.51
2018-10-01T17:16:05.972Z,53.19
2018-10-01T17:18:34.802Z,52.78
2018-10-01T17:21:03.542Z,54.62
2018-10-01T17:23:36.344Z,53.34
2018-10-01T17:26:04.899Z,54.02
2018-10-01T17:28:35.535Z,55.68
2018-10-01T17:31:04.269Z,54.93
2018-10-01T17:33:32.741Z,53.17
2018-10-01T17:36:03.355Z,53.45
2018-10-01T17:38:32.028Z,54.42
2018-10-01T17:41:00.816Z,54.66
2018-10-01T17:43:29.214Z,55.37
2018-10-01T17:45:57.702Z,55.74
2018-10-01T17:48:26.168Z,56.31
2018-10-01T17:50:54.669Z,55.97
2018-10-01T17:53:23.192Z,56.11
2018-10-01T17:55:51.679Z,55.87
2018-10-01T17:58:31.125Z,56.56
2018-10-01T18:00:59.663Z,58.00
2018-10-01T18:03:28.185Z,57.47
2018-10-01T18:05:56.699Z,58.65
2018-10-01T18:08:25.055Z,58.62
2018-10-01T18:10:53.636Z,59.12
2018-10-01T18:13:30.155Z,59.78
2018-10-01T18:15:58.792Z,59.97
2018-10-01T18:18:27.247Z,60.12
2018-10-01T18:20:55.777Z,60.03
2018-10-01T18:23:24.795Z,60.07
2018-10-01T18:25:53.189Z,60.26
2018-10-01T18:28:21.632Z,59.91
2018-10-01T18:30:50.150Z,59.25
2018-10-01T18:33:18.606Z,59.95
2018-10-01T18:35:47.952Z,60.29
2018-10-01T18:38:28.058Z,60.08
2018-10-01T18:40:56.573Z,59.57
2018-10-01T18:43:26.486Z,60.21
2018-10-01T18:45:54.859Z,60.54
2018-10-01T18:48:23.503Z,60.51
2018-10-01T18:50:51.898Z,59.38
2018-10-01T18:53:20.416Z,59.07
2018-10-01T18:55:48.948Z,58.55
2018-10-01T18:58:17.325Z,58.01
2018-10-01T19:00:45.754Z,57.27
2018-10-01T19:03:14.241Z,57.83
2018-10-01T19:05:42.896Z,57.23
2018-10-01T19:11:09.490Z,57.35
2018-10-01T19:13:38.033Z,57.64
2018-10-01T19:16:06.499Z,60.49
2018-10-01T19:18:34.929Z,65.73
2018-10-01T19:21:03.324Z,67.68
2018-10-01T19:23:31.720Z,72.31
2018-10-01T19:26:04.335Z,75.40
2018-10-01T19:28:32.791Z,76.91
2018-10-01T19:31:02.691Z,76.44
2018-10-01T19:33:31.390Z,79.08
2018-10-01T19:36:04.431Z,77.20
2018-10-01T19:38:32.992Z,79.82
2018-10-01T19:41:01.439Z,82.05
2018-10-01T19:43:30.186Z,86.23
2018-10-01T19:45:59.099Z,100.00
2018-10-01T19:51:08.679Z,93.96
2018-10-01T19:53:37.410Z,69.37
2018-10-01T19:56:05.807Z,66.35
2018-10-01T19:58:34.387Z,71.64
2018-10-01T20:01:02.693Z,71.62
2018-10-01T20:03:31.297Z,71.76
2018-10-01T20:05:59.570Z,68.96
2018-10-01T20:08:28.052Z,69.22
2018-10-01T20:10:56.481Z,69.04
2018-10-01T20:13:24.758Z,71.91
2018-10-01T20:15:52.996Z,70.29
2018-10-01T20:18:21.348Z,72.33
2018-10-01T20:20:49.680Z,70.21
2018-10-01T20:23:18.037Z,71.76
2018-10-01T20:25:46.336Z,72.68
2018-10-01T20:28:14.755Z,74.88
2018-10-01T20:30:43.098Z,72.55
2018-10-01T20:33:11.432Z,71.91
2018-10-01T20:35:40.131Z,70.28
2018-10-01T20:38:08.378Z,72.44
2018-10-01T20:40:36.599Z,70.61
2018-10-01T20:43:05.251Z,70.43
2018-10-01T20:45:33.545Z,69.12
2018-10-01T20:48:02.068Z,69.04
2018-10-01T20:50:30.244Z,69.36
2018-10-01T20:52:58.757Z,69.99
2018-10-01T20:55:26.914Z,69.40
2018-10-01T20:57:55.311Z,69.40
2018-10-01T21:00:23.725Z,71.30
2018-10-01T21:02:54.083Z,71.72
2018-10-01T21:05:22.580Z,74.80
2018-10-01T21:07:51.104Z,73.26
2018-10-01T21:10:20.204Z,69.97
2018-10-01T21:12:49.010Z,71.85
2018-10-01T21:15:17.530Z,71.10
2018-10-01T21:17:46.196Z,70.43
2018-10-01T21:20:14.532Z,70.27
2018-10-01T21:22:43.120Z,70.50
2018-10-01T21:25:11.420Z,68.23
2018-10-01T21:27:39.744Z,68.53
2018-10-01T21:30:08.049Z,67.90
2018-10-01T21:32:36.403Z,71.09
2018-10-01T21:35:04.744Z,70.08
2018-10-01T21:37:32.987Z,67.56
2018-10-01T21:40:05.992Z,65.37
2018-10-01T21:42:34.468Z,63.77
2018-10-01T21:45:04.550Z,63.42
2018-10-01T21:47:33.202Z,65.30
2018-10-01T21:50:01.530Z,63.31
2018-10-01T21:52:30.328Z,62.74
2018-10-01T21:54:59.065Z,63.63
2018-10-01T21:57:27.373Z,62.47
2018-10-01T21:59:55.738Z,64.77
2018-10-01T22:02:24.056Z,63.25
2018-10-01T22:04:52.388Z,62.13
2018-10-01T22:07:21.477Z,62.72
2018-10-01T22:09:50.442Z,61.98
2018-10-01T22:12:18.813Z,63.51
2018-10-01T22:14:47.212Z,62.50
2018-10-01T22:19:30.345Z,63.44
2018-10-01T22:21:59.260Z,63.73
2018-10-01T22:24:27.792Z,64.13
2018-10-01T22:26:56.037Z,64.52
2018-10-01T22:34:03.395Z,64.45
2018-10-01T22:36:32.060Z,63.83
2018-10-01T22:39:00.500Z,64.39
2018-10-01T22:41:28.772Z,64.14
2018-10-01T22:43:57.328Z,64.41
2018-10-01T22:46:25.699Z,65.20
2018-10-01T22:48:54.033Z,64.03
2018-10-01T22:51:22.484Z,63.21
2018-10-01T22:54:30.911Z,63.40
2018-10-01T22:56:59.279Z,64.35
2018-10-01T22:59:27.586Z,66.60
2018-10-01T23:01:55.992Z,67.44
2018-10-01T23:04:27.484Z,70.67
2018-10-01T23:06:56.003Z,69.27
2018-10-01T23:09:24.332Z,71.28
2018-10-01T23:11:52.650Z,69.83
2018-10-01T23:14:21.370Z,71.42
2018-10-01T23:16:49.616Z,69.35
2018-10-01T23:19:17.863Z,69.27
2018-10-01T23:21:46.110Z,69.50
2018-10-01T23:24:14.413Z,70.90
2018-10-01T23:26:42.709Z,73.38
2018-10-01T23:29:11.007Z,74.97
2018-10-01T23:31:39.295Z,75.86
2018-10-01T23:34:07.687Z,77.82
2018-10-01T23:36:35.907Z,77.91
2018-10-01T23:39:05.077Z,79.35
2018-10-01T23:41:33.335Z,78.57
2018-10-01T23:44:01.824Z,76.87
2018-10-01T23:46:30.086Z,75.83
2018-10-01T23:48:58.346Z,76.64
2018-10-01T23:51:26.609Z,78.23
2018-10-01T23:53:54.819Z,79.31
2018-10-01T23:56:23.045Z,77.97
2018-10-01T23:58:51.256Z,77.48
